createdAt,value
2022-12-19T00:00:42.751Z,58.88
2022-12-19T00:01:42.795Z,60.52
2022-12-19T00:02:42.861Z,62.61
2022-12-19T00:03:42.732Z,62.31
2022-12-19T00:04:42.706Z,61.55
2022-12-19T00:05:42.778Z,61.20
2022-12-19T00:06:43.951Z,59.47
2022-12-19T00:07:42.718Z,57.38
2022-12-19T00:08:42.698Z,60.61
2022-12-19T00:09:42.674Z,62.32
2022-12-19T00:10:42.670Z,58.85
2022-12-19T00:11:42.662Z,59.30
2022-12-19T00:12:42.670Z,58.11
2022-12-19T00:13:42.643Z,59.42
2022-12-19T00:14:42.635Z,62.77
2022-12-19T00:15:42.628Z,59.89
2022-12-19T00:16:42.670Z,61.27
2022-12-19T00:17:42.631Z,59.17
2022-12-19T00:18:42.635Z,57.08
2022-12-19T00:19:42.633Z,62.48
2022-12-19T00:20:42.612Z,59.13
2022-12-19T00:21:42.683Z,55.36
2022-12-19T00:22:42.598Z,59.26
2022-12-19T00:23:42.582Z,60.47
2022-12-19T00:24:42.573Z,61.16
2022-12-19T00:25:42.631Z,60.49
2022-12-19T00:26:42.560Z,61.70
2022-12-19T00:27:42.568Z,57.76
2022-12-19T00:28:42.557Z,58.51
2022-12-19T00:29:42.543Z,58.38
2022-12-19T00:30:42.575Z,58.86
2022-12-19T00:31:42.582Z,59.57
2022-12-19T00:32:42.531Z,56.59
2022-12-19T00:33:43.532Z,58.06
2022-12-19T00:34:42.512Z,63.61
2022-12-19T00:35:42.533Z,60.33
2022-12-19T00:36:42.498Z,60.41
2022-12-19T00:37:49.323Z,61.96
2022-12-19T00:38:43.499Z,58.99
2022-12-19T00:39:42.488Z,56.38
2022-12-19T00:40:42.483Z,57.87
2022-12-19T00:41:42.721Z,57.64
2022-12-19T00:42:42.461Z,62.64
2022-12-19T00:43:42.462Z,57.56
2022-12-19T00:44:42.444Z,61.68
2022-12-19T00:45:42.514Z,59.71
2022-12-19T00:46:42.476Z,53.77
2022-12-19T00:47:42.442Z,59.89
2022-12-19T00:48:42.428Z,62.42
2022-12-19T00:49:42.442Z,59.82
2022-12-19T00:50:42.425Z,62.23
2022-12-19T00:51:42.414Z,60.44
2022-12-19T00:52:42.419Z,63.26
2022-12-19T00:53:42.466Z,62.89
2022-12-19T00:54:42.439Z,60.77
2022-12-19T00:55:42.382Z,58.95
2022-12-19T00:56:42.385Z,62.20
2022-12-19T00:57:42.362Z,58.84
2022-12-19T00:58:46.765Z,63.19
2022-12-19T00:59:43.359Z,62.01
2022-12-19T01:00:42.425Z,60.44
2022-12-19T01:01:42.482Z,59.31
2022-12-19T01:02:42.495Z,59.90
2022-12-19T01:03:58.059Z,62.34
2022-12-19T01:04:43.341Z,61.76
2022-12-19T01:05:42.326Z,62.84
2022-12-19T01:06:42.310Z,62.30
2022-12-19T01:07:42.311Z,62.26
2022-12-19T01:08:42.298Z,59.88
2022-12-19T01:09:42.368Z,58.59
2022-12-19T01:10:42.295Z,58.88
2022-12-19T01:11:42.298Z,60.42
2022-12-19T01:12:42.264Z,62.09
2022-12-19T01:13:42.253Z,61.73
2022-12-19T01:14:42.266Z,53.68
2022-12-19T01:15:42.248Z,55.40
2022-12-19T01:16:42.339Z,59.49
2022-12-19T01:17:44.418Z,62.37
2022-12-19T01:18:42.244Z,63.43
2022-12-19T01:19:44.613Z,60.18
2022-12-19T01:20:42.233Z,60.74
2022-12-19T01:21:42.212Z,63.12
2022-12-19T01:22:42.205Z,56.78
2022-12-19T01:23:42.208Z,60.99
2022-12-19T01:24:42.199Z,63.53
2022-12-19T01:25:45.894Z,54.68
2022-12-19T01:26:42.167Z,58.48
2022-12-19T01:27:42.182Z,62.94
2022-12-19T01:28:42.173Z,58.71
2022-12-19T01:29:52.464Z,62.30
2022-12-19T01:30:42.144Z,60.33
2022-12-19T01:31:42.202Z,59.62
2022-12-19T01:32:42.133Z,59.71
2022-12-19T01:33:42.122Z,60.62
2022-12-19T01:34:42.119Z,59.00
2022-12-19T01:35:42.122Z,61.48
2022-12-19T01:36:42.111Z,60.24
2022-12-19T01:37:42.122Z,63.30
2022-12-19T01:38:42.096Z,59.56
2022-12-19T01:39:42.090Z,60.81
2022-12-19T01:40:42.102Z,62.45
2022-12-19T01:41:42.151Z,63.01
2022-12-19T01:42:42.063Z,60.28
2022-12-19T01:43:42.063Z,61.51
2022-12-19T01:44:42.060Z,56.17
2022-12-19T01:45:45.839Z,60.42
2022-12-19T01:46:42.127Z,63.24
2022-12-19T01:47:42.059Z,60.85
2022-12-19T01:48:42.030Z,61.71
2022-12-19T01:49:42.031Z,61.33
2022-12-19T01:50:51.463Z,63.28
2022-12-19T01:51:42.006Z,67.17
2022-12-19T01:52:42.009Z,61.05
2022-12-19T01:53:49.030Z,61.94
2022-12-19T01:54:42.998Z,60.41
2022-12-19T01:55:41.995Z,64.29
2022-12-19T01:56:41.967Z,64.76
2022-12-19T01:57:42.012Z,60.06
2022-12-19T01:58:41.934Z,60.32
2022-12-19T01:59:41.929Z,59.76
2022-12-19T02:00:41.946Z,61.34
2022-12-19T02:01:51.172Z,63.44
2022-12-19T02:02:43.009Z,63.78
2022-12-19T02:03:41.906Z,64.92
2022-12-19T02:04:41.901Z,64.93
2022-12-19T02:05:41.887Z,63.89
2022-12-19T02:06:41.900Z,63.07
2022-12-19T02:07:41.902Z,65.24
2022-12-19T02:08:41.919Z,62.69
2022-12-19T02:09:41.864Z,62.79
2022-12-19T02:10:41.858Z,59.02
2022-12-19T02:11:41.848Z,62.19
2022-12-19T02:12:41.842Z,61.20
2022-12-19T02:13:41.861Z,64.79
2022-12-19T02:14:41.832Z,60.77
2022-12-19T02:15:41.840Z,61.44
2022-12-19T02:16:41.820Z,64.99
2022-12-19T02:17:41.815Z,60.56
2022-12-19T02:18:41.827Z,58.02
2022-12-19T02:19:41.826Z,62.30
2022-12-19T02:20:41.792Z,61.65
2022-12-19T02:21:41.802Z,65.12
2022-12-19T02:22:41.779Z,63.35
2022-12-19T02:23:41.786Z,59.93
2022-12-19T02:24:41.770Z,63.34
2022-12-19T02:25:41.785Z,63.55
2022-12-19T02:26:41.763Z,61.01
2022-12-19T02:27:41.755Z,62.10
2022-12-19T02:28:41.751Z,58.79
2022-12-19T02:29:41.826Z,60.88
2022-12-19T02:30:41.736Z,59.48
2022-12-19T02:31:41.797Z,62.52
2022-12-19T02:32:41.727Z,61.85
2022-12-19T02:33:41.715Z,62.76
2022-12-19T02:34:44.575Z,59.49
2022-12-19T02:35:41.718Z,58.38
2022-12-19T02:36:43.458Z,60.62
2022-12-19T02:37:41.705Z,63.98
2022-12-19T02:38:41.696Z,64.48
2022-12-19T02:39:41.708Z,66.02
2022-12-19T02:40:41.689Z,64.29
2022-12-19T02:41:41.682Z,65.05
2022-12-19T02:42:41.662Z,63.99
2022-12-19T02:43:41.676Z,63.31
2022-12-19T02:44:41.652Z,61.59
2022-12-19T02:45:41.820Z,64.10
2022-12-19T02:46:41.661Z,66.03
2022-12-19T02:47:41.651Z,63.39
2022-12-19T02:48:41.637Z,64.27
2022-12-19T02:49:41.622Z,62.27
2022-12-19T02:50:41.624Z,59.78
2022-12-19T02:51:41.627Z,61.14
2022-12-19T02:52:41.607Z,61.38
2022-12-19T02:53:41.604Z,60.03
2022-12-19T02:54:44.962Z,63.84
2022-12-19T02:55:41.614Z,64.90
2022-12-19T02:56:41.598Z,62.68
2022-12-19T02:57:41.584Z,61.09
2022-12-19T02:58:41.617Z,62.91
2022-12-19T02:59:41.594Z,61.39
2022-12-19T03:00:41.564Z,62.16
2022-12-19T03:01:41.838Z,64.36
2022-12-19T03:02:41.731Z,63.07
2022-12-19T03:03:41.604Z,64.80
2022-12-19T03:04:41.554Z,60.92
2022-12-19T03:05:41.534Z,63.18
2022-12-19T03:06:41.539Z,62.61
2022-12-19T03:07:41.530Z,60.85
2022-12-19T03:08:41.514Z,62.02
2022-12-19T03:09:41.538Z,56.46
2022-12-19T03:10:41.510Z,60.81
2022-12-19T03:11:41.527Z,61.29
2022-12-19T03:12:41.506Z,64.40
2022-12-19T03:13:41.494Z,59.32
2022-12-19T03:14:41.487Z,60.45
2022-12-19T03:15:41.478Z,65.52
2022-12-19T03:16:41.571Z,60.30
2022-12-19T03:17:41.549Z,63.48
2022-12-19T03:18:41.454Z,63.62
2022-12-19T03:19:41.461Z,65.50
2022-12-19T03:20:41.448Z,61.27
2022-12-19T03:21:41.454Z,65.57
2022-12-19T03:22:41.446Z,62.66
2022-12-19T03:23:41.430Z,63.59
2022-12-19T03:24:41.430Z,62.57
2022-12-19T03:25:41.419Z,62.44
2022-12-19T03:26:41.404Z,64.68
2022-12-19T03:27:41.408Z,61.85
2022-12-19T03:28:41.414Z,60.76
2022-12-19T03:29:41.378Z,57.99
2022-12-19T03:30:41.443Z,58.63
2022-12-19T03:31:41.388Z,59.69
2022-12-19T03:32:41.371Z,61.64
2022-12-19T03:33:41.440Z,64.38
2022-12-19T03:34:41.382Z,64.63
2022-12-19T03:35:41.349Z,63.61
2022-12-19T03:36:41.347Z,59.03
2022-12-19T03:37:41.337Z,65.56
2022-12-19T03:38:41.346Z,66.25
2022-12-19T03:39:41.334Z,65.42
2022-12-19T03:40:41.336Z,64.65
2022-12-19T03:41:41.316Z,66.27
2022-12-19T03:42:41.312Z,63.39
2022-12-19T03:43:41.299Z,61.50
2022-12-19T03:44:41.289Z,62.52
2022-12-19T03:45:41.356Z,62.55
2022-12-19T03:46:41.285Z,65.26
2022-12-19T03:47:41.292Z,63.73
2022-12-19T03:48:41.263Z,60.69
2022-12-19T03:49:41.346Z,65.18
2022-12-19T03:50:41.280Z,64.27
2022-12-19T03:51:41.250Z,64.18
2022-12-19T03:52:41.253Z,62.36
2022-12-19T03:53:41.231Z,62.53
2022-12-19T03:54:41.256Z,63.28
2022-12-19T03:55:41.236Z,63.58
2022-12-19T03:56:41.217Z,63.71
2022-12-19T03:57:41.250Z,62.70
2022-12-19T03:58:41.209Z,62.17
2022-12-19T03:59:41.193Z,63.76
2022-12-19T04:00:41.189Z,64.04
2022-12-19T04:01:41.277Z,61.71
2022-12-19T04:02:41.200Z,62.61
2022-12-19T04:03:41.261Z,61.42
2022-12-19T04:04:41.175Z,61.66
2022-12-19T04:05:41.248Z,61.85
2022-12-19T04:06:41.160Z,62.39
2022-12-19T04:07:41.189Z,60.73
2022-12-19T04:08:41.161Z,62.39
2022-12-19T04:09:41.145Z,64.69
2022-12-19T04:10:41.127Z,62.42
2022-12-19T04:11:41.132Z,61.59
2022-12-19T04:12:41.153Z,63.47
2022-12-19T04:13:41.109Z,67.26
2022-12-19T04:14:41.121Z,62.95
2022-12-19T04:15:41.132Z,64.33
2022-12-19T04:16:41.083Z,62.07
2022-12-19T04:17:41.086Z,64.89
2022-12-19T04:18:41.100Z,61.58
2022-12-19T04:19:42.673Z,64.07
2022-12-19T04:20:41.072Z,62.29
2022-12-19T04:21:41.145Z,62.85
2022-12-19T04:22:41.060Z,62.32
2022-12-19T04:23:41.053Z,62.05
2022-12-19T04:24:41.039Z,63.91
2022-12-19T04:25:41.065Z,62.43
2022-12-19T04:26:41.031Z,63.92
2022-12-19T04:27:41.029Z,62.67
2022-12-19T04:28:41.014Z,63.31
2022-12-19T04:29:41.007Z,63.96
2022-12-19T04:30:41.021Z,60.79
2022-12-19T04:31:41.007Z,62.82
2022-12-19T04:32:40.995Z,62.58
2022-12-19T04:33:40.981Z,67.12
2022-12-19T04:34:42.974Z,65.05
2022-12-19T04:35:40.971Z,62.29
2022-12-19T04:36:40.981Z,61.37
2022-12-19T04:37:41.024Z,63.34
2022-12-19T04:38:40.956Z,64.07
2022-12-19T04:39:40.945Z,62.38
2022-12-19T04:40:41.828Z,64.51
2022-12-19T04:41:40.939Z,62.56
2022-12-19T04:42:40.933Z,65.81
2022-12-19T04:43:40.911Z,61.08
2022-12-19T04:44:40.904Z,63.70
2022-12-19T04:45:40.898Z,63.50
2022-12-19T04:46:41.001Z,62.08
2022-12-19T04:47:40.885Z,61.90
2022-12-19T04:48:40.903Z,62.70
2022-12-19T04:49:40.877Z,63.47
2022-12-19T04:50:40.884Z,63.01
2022-12-19T04:51:40.857Z,61.86
2022-12-19T04:52:40.855Z,63.86
2022-12-19T04:53:40.933Z,64.98
2022-12-19T04:54:40.838Z,64.90
2022-12-19T04:55:40.837Z,61.45
2022-12-19T04:56:40.846Z,62.65
2022-12-19T04:57:40.821Z,64.17
2022-12-19T04:58:40.837Z,64.47
2022-12-19T04:59:40.808Z,62.45
2022-12-19T05:00:40.794Z,65.11
2022-12-19T05:01:40.948Z,63.99
2022-12-19T05:02:40.960Z,61.23
2022-12-19T05:03:40.875Z,61.81
2022-12-19T05:04:40.798Z,63.45
2022-12-19T05:05:40.788Z,64.49
2022-12-19T05:06:40.768Z,64.56
2022-12-19T05:07:40.753Z,63.12
2022-12-19T05:08:40.760Z,62.54
2022-12-19T05:09:40.823Z,64.30
2022-12-19T05:10:40.732Z,63.73
2022-12-19T05:11:40.731Z,61.78
2022-12-19T05:12:40.721Z,60.37
2022-12-19T05:13:40.715Z,62.30
2022-12-19T05:14:40.743Z,64.93
2022-12-19T05:15:40.744Z,63.22
2022-12-19T05:16:40.687Z,63.49
2022-12-19T05:17:40.686Z,61.13
2022-12-19T05:18:40.684Z,63.06
2022-12-19T05:19:40.700Z,63.70
2022-12-19T05:20:40.664Z,65.68
2022-12-19T05:21:40.682Z,67.20
2022-12-19T05:22:40.662Z,63.71
2022-12-19T05:23:40.658Z,64.45
2022-12-19T05:24:40.648Z,65.30
2022-12-19T05:25:40.741Z,62.51
2022-12-19T05:26:40.632Z,62.61
2022-12-19T05:27:40.625Z,63.40
2022-12-19T05:28:40.611Z,60.53
2022-12-19T05:29:40.630Z,64.27
2022-12-19T05:30:40.609Z,67.13
2022-12-19T05:31:40.681Z,64.26
2022-12-19T05:32:40.583Z,63.01
2022-12-19T05:33:40.595Z,65.02
2022-12-19T05:34:40.572Z,64.41
2022-12-19T05:35:40.588Z,64.61
2022-12-19T05:36:40.567Z,66.36
2022-12-19T05:37:40.566Z,65.56
2022-12-19T05:38:40.555Z,63.99
2022-12-19T05:39:40.546Z,65.00
2022-12-19T05:40:40.543Z,64.04
2022-12-19T05:41:40.631Z,66.49
2022-12-19T05:42:40.520Z,66.95
2022-12-19T05:43:40.514Z,65.71
2022-12-19T05:44:40.532Z,65.67
2022-12-19T05:45:40.505Z,64.30
2022-12-19T05:46:40.525Z,63.97
2022-12-19T05:47:40.497Z,65.07
2022-12-19T05:48:40.487Z,64.88
2022-12-19T05:49:40.479Z,64.91
2022-12-19T05:50:40.497Z,63.85
2022-12-19T05:51:40.466Z,64.83
2022-12-19T05:52:40.453Z,65.17
2022-12-19T05:53:40.458Z,65.10
2022-12-19T05:54:40.449Z,65.89
2022-12-19T05:55:40.453Z,65.01
2022-12-19T05:56:40.456Z,61.81
2022-12-19T05:57:40.538Z,63.42
2022-12-19T05:58:40.421Z,64.38
2022-12-19T05:59:40.412Z,64.74
2022-12-19T06:00:40.412Z,65.86
2022-12-19T06:01:40.474Z,66.75
2022-12-19T06:02:40.570Z,64.19
2022-12-19T06:03:40.438Z,64.27
2022-12-19T06:04:40.408Z,64.75
2022-12-19T06:05:40.393Z,62.91
2022-12-19T06:06:40.369Z,66.61
2022-12-19T06:07:40.372Z,67.88
2022-12-19T06:08:40.364Z,64.42
2022-12-19T06:09:40.363Z,64.74
2022-12-19T06:10:40.365Z,65.52
2022-12-19T06:11:40.344Z,64.37
2022-12-19T06:12:40.340Z,62.09
2022-12-19T06:13:40.416Z,65.65
2022-12-19T06:14:40.329Z,65.60
2022-12-19T06:15:40.315Z,68.94
2022-12-19T06:16:40.340Z,68.14
2022-12-19T06:17:40.325Z,66.02
2022-12-19T06:18:44.302Z,66.25
2022-12-19T06:19:40.296Z,65.00
2022-12-19T06:20:40.301Z,63.86
2022-12-19T06:21:47.959Z,64.48
2022-12-19T06:22:40.272Z,66.59
2022-12-19T06:23:40.298Z,65.32
2022-12-19T06:24:40.255Z,64.05
2022-12-19T06:25:40.255Z,65.03
2022-12-19T06:26:40.239Z,64.42
2022-12-19T06:27:40.242Z,64.86
2022-12-19T06:28:40.259Z,66.00
2022-12-19T06:29:40.326Z,65.87
2022-12-19T06:30:40.224Z,63.57
2022-12-19T06:31:40.284Z,63.74
2022-12-19T06:32:40.208Z,66.68
2022-12-19T06:33:40.212Z,67.53
2022-12-19T06:35:03.152Z,65.70
2022-12-19T06:35:41.190Z,66.41
2022-12-19T06:36:40.174Z,63.24
2022-12-19T06:37:40.176Z,64.37
2022-12-19T06:38:40.162Z,61.69
2022-12-19T06:39:40.185Z,62.42
2022-12-19T06:40:40.148Z,61.07
2022-12-19T06:41:40.148Z,60.79
2022-12-19T06:42:40.126Z,62.62
2022-12-19T06:43:40.122Z,61.72
2022-12-19T06:44:40.119Z,65.28
2022-12-19T06:45:40.269Z,66.07
2022-12-19T06:46:40.096Z,63.83
2022-12-19T06:47:40.106Z,63.96
2022-12-19T06:48:40.089Z,65.26
2022-12-19T06:49:40.092Z,64.76
2022-12-19T06:50:40.090Z,61.68
2022-12-19T06:51:40.112Z,63.49
2022-12-19T06:52:40.068Z,65.52
2022-12-19T06:53:40.065Z,62.81
2022-12-19T06:54:40.061Z,63.23
2022-12-19T06:55:40.055Z,63.28
2022-12-19T06:56:40.068Z,64.07
2022-12-19T06:57:40.061Z,63.24
2022-12-19T06:58:40.029Z,61.51
2022-12-19T06:59:40.024Z,63.46
2022-12-19T07:00:40.054Z,62.38
2022-12-19T07:01:40.558Z,59.67
2022-12-19T07:02:40.138Z,62.23
2022-12-19T07:03:40.014Z,62.99
2022-12-19T07:04:40.011Z,67.28
2022-12-19T07:05:39.997Z,64.91
2022-12-19T07:06:43.476Z,64.69
2022-12-19T07:07:41.009Z,64.12
2022-12-19T07:08:39.972Z,63.91
2022-12-19T07:09:39.988Z,63.49
2022-12-19T07:10:40.013Z,64.65
2022-12-19T07:11:39.960Z,64.17
2022-12-19T07:12:39.944Z,64.56
2022-12-19T07:13:39.949Z,65.59
2022-12-19T07:14:39.945Z,65.59
2022-12-19T07:15:39.959Z,66.49
2022-12-19T07:16:39.991Z,67.84
2022-12-19T07:17:40.056Z,64.88
2022-12-19T07:18:39.907Z,66.64
2022-12-19T07:19:39.899Z,64.18
2022-12-19T07:20:44.914Z,67.31
2022-12-19T07:21:39.904Z,67.64
2022-12-19T07:22:39.877Z,64.53
2022-12-19T07:23:39.873Z,65.77
2022-12-19T07:24:39.869Z,65.27
2022-12-19T07:25:39.857Z,66.62
2022-12-19T07:26:39.888Z,67.44
2022-12-19T07:27:39.843Z,67.20
2022-12-19T07:28:39.841Z,65.91
2022-12-19T07:29:39.832Z,65.33
2022-12-19T07:30:39.829Z,63.80
2022-12-19T07:31:39.831Z,64.24
2022-12-19T07:32:39.866Z,63.85
2022-12-19T07:33:39.945Z,63.67
2022-12-19T07:34:39.811Z,65.49
2022-12-19T07:35:39.783Z,63.69
2022-12-19T07:36:39.786Z,63.66
2022-12-19T07:37:39.781Z,65.44
2022-12-19T07:38:39.789Z,65.39
2022-12-19T07:39:39.756Z,63.38
2022-12-19T07:40:39.756Z,65.90
2022-12-19T07:41:39.750Z,63.38
2022-12-19T07:42:39.741Z,66.00
2022-12-19T07:43:39.759Z,65.39
2022-12-19T07:44:39.733Z,64.65
2022-12-19T07:45:39.766Z,64.77
2022-12-19T07:46:39.728Z,64.47
2022-12-19T07:47:39.705Z,64.34
2022-12-19T07:48:39.707Z,63.37
2022-12-19T07:49:39.797Z,65.25
2022-12-19T07:50:39.683Z,64.55
2022-12-19T07:51:39.681Z,65.43
2022-12-19T07:52:39.666Z,66.25
2022-12-19T07:53:39.673Z,65.10
2022-12-19T07:54:39.679Z,64.73
2022-12-19T07:55:39.680Z,64.15
2022-12-19T07:56:39.649Z,65.90
2022-12-19T07:57:39.640Z,63.88
2022-12-19T07:58:39.643Z,62.09
2022-12-19T07:59:39.702Z,62.06
2022-12-19T08:00:39.618Z,63.59
2022-12-19T08:01:39.717Z,64.83
2022-12-19T08:02:39.691Z,64.93
2022-12-19T08:03:39.616Z,65.44
2022-12-19T08:04:39.591Z,66.11
2022-12-19T08:05:39.667Z,64.32
2022-12-19T08:06:41.528Z,64.54
2022-12-19T08:07:39.569Z,62.42
2022-12-19T08:08:39.584Z,63.52
2022-12-19T08:09:39.564Z,66.44
2022-12-19T08:10:39.545Z,66.55
2022-12-19T08:11:39.565Z,64.05
2022-12-19T08:12:39.563Z,66.47
2022-12-19T08:13:44.833Z,65.25
2022-12-19T08:14:40.532Z,64.65
2022-12-19T08:15:39.539Z,65.29
2022-12-19T08:17:11.058Z,66.32
2022-12-19T08:17:40.565Z,63.15
2022-12-19T08:18:39.496Z,61.59
2022-12-19T08:19:39.558Z,63.41
2022-12-19T08:20:39.494Z,63.14
2022-12-19T08:21:39.556Z,62.52
2022-12-19T08:22:39.518Z,66.07
2022-12-19T08:23:39.479Z,65.86
2022-12-19T08:24:39.452Z,64.65
2022-12-19T08:25:39.502Z,66.13
2022-12-19T08:26:44.495Z,66.24
2022-12-19T08:27:39.452Z,62.57
2022-12-19T08:28:39.433Z,63.69
2022-12-19T08:29:39.443Z,66.49
2022-12-19T08:30:39.466Z,64.92
2022-12-19T08:31:39.474Z,64.59
2022-12-19T08:32:39.409Z,66.29
2022-12-19T08:33:39.436Z,67.65
2022-12-19T08:34:39.409Z,68.83
2022-12-19T08:35:39.420Z,69.60
2022-12-19T08:36:39.401Z,68.31
2022-12-19T08:37:39.450Z,66.23
2022-12-19T08:38:39.390Z,65.41
2022-12-19T08:39:39.392Z,61.94
2022-12-19T08:40:44.298Z,62.46
2022-12-19T08:41:40.414Z,62.77
2022-12-19T08:42:39.381Z,61.99
2022-12-19T08:43:39.339Z,62.17
2022-12-19T08:44:39.366Z,63.35
2022-12-19T08:45:39.395Z,62.99
2022-12-19T08:46:39.376Z,62.70
2022-12-19T08:47:39.361Z,61.83
2022-12-19T08:48:39.322Z,62.21
2022-12-19T08:49:39.331Z,61.92
2022-12-19T08:50:39.319Z,60.85
2022-12-19T08:51:39.358Z,60.36
2022-12-19T08:52:39.328Z,61.80
2022-12-19T08:53:39.383Z,64.25
2022-12-19T08:54:39.280Z,63.68
2022-12-19T08:55:39.293Z,61.82
2022-12-19T08:56:42.991Z,64.02
2022-12-19T08:57:39.313Z,65.26
2022-12-19T08:58:39.244Z,64.13
2022-12-19T08:59:39.254Z,63.47
2022-12-19T09:00:39.256Z,65.01
2022-12-19T09:01:39.382Z,63.76
2022-12-19T09:02:39.372Z,64.63
2022-12-19T09:03:51.307Z,63.07
2022-12-19T09:06:00.116Z,62.73
2022-12-19T09:06:05.343Z,65.78
2022-12-19T09:06:40.285Z,64.20
2022-12-19T09:07:39.205Z,63.77
2022-12-19T09:08:39.190Z,62.81
2022-12-19T09:09:39.263Z,65.38
2022-12-19T09:10:39.206Z,65.70
2022-12-19T09:11:47.379Z,64.26
2022-12-19T09:12:40.148Z,63.09
2022-12-19T09:13:39.159Z,65.28
2022-12-19T09:14:39.157Z,65.76
2022-12-19T09:15:39.149Z,65.37
2022-12-19T09:16:39.189Z,66.54
2022-12-19T09:17:39.145Z,64.76
2022-12-19T09:18:42.641Z,65.96
2022-12-19T09:19:40.125Z,66.29
2022-12-19T09:20:39.109Z,65.00
2022-12-19T09:21:39.140Z,66.08
2022-12-19T09:22:39.096Z,68.39
2022-12-19T09:23:39.096Z,68.27
2022-12-19T09:24:39.108Z,65.32
2022-12-19T09:25:39.148Z,64.65
2022-12-19T09:26:39.065Z,66.22
2022-12-19T09:28:17.537Z,65.85
2022-12-19T09:28:40.091Z,65.15
2022-12-19T09:29:39.075Z,66.52
2022-12-19T09:30:39.130Z,67.22
2022-12-19T09:31:39.072Z,63.91
2022-12-19T09:32:39.048Z,66.36
2022-12-19T09:33:43.320Z,65.12
2022-12-19T09:34:39.305Z,65.92
2022-12-19T09:35:39.025Z,67.41
2022-12-19T09:36:39.033Z,66.16
2022-12-19T09:37:39.008Z,65.06
2022-12-19T09:38:38.998Z,65.20
2022-12-19T09:39:38.986Z,66.01
2022-12-19T09:40:38.972Z,63.49
2022-12-19T09:41:39.091Z,67.01
2022-12-19T09:42:40.679Z,65.53
2022-12-19T09:43:41.384Z,64.55
2022-12-19T09:44:38.987Z,64.68
2022-12-19T09:45:38.953Z,66.78
2022-12-19T09:46:38.968Z,67.60
2022-12-19T09:47:38.960Z,68.05
2022-12-19T09:48:38.961Z,67.18
2022-12-19T09:49:41.942Z,65.46
2022-12-19T09:50:38.931Z,66.57
2022-12-19T09:51:38.911Z,64.42
2022-12-19T09:52:38.918Z,65.72
2022-12-19T09:53:38.901Z,67.42
2022-12-19T09:54:38.930Z,67.15
2022-12-19T09:55:38.889Z,65.23
2022-12-19T09:56:45.626Z,66.65
2022-12-19T09:57:39.971Z,66.87
2022-12-19T09:58:38.884Z,66.46
2022-12-19T09:59:42.790Z,64.51
2022-12-19T10:00:39.844Z,65.43
2022-12-19T10:01:38.951Z,63.65
2022-12-19T10:02:38.985Z,65.15
2022-12-19T10:03:40.536Z,65.82
2022-12-19T10:04:38.839Z,64.95
2022-12-19T10:06:41.137Z,66.71
2022-12-19T10:07:19.396Z,67.66
2022-12-19T10:08:01.839Z,66.43
2022-12-19T10:09:20.596Z,65.01
2022-12-19T10:12:16.946Z,64.06
2022-12-19T10:12:38.266Z,65.07
2022-12-19T10:12:43.072Z,63.85
2022-12-19T10:12:51.946Z,66.38
2022-12-19T10:13:39.834Z,66.27
2022-12-19T10:14:38.759Z,64.89
2022-12-19T10:15:38.822Z,64.09
2022-12-19T10:16:38.737Z,63.37
2022-12-19T10:17:38.797Z,66.28
2022-12-19T10:18:38.733Z,66.19
2022-12-19T10:19:38.730Z,65.49
2022-12-19T10:20:38.767Z,67.50
2022-12-19T10:22:08.106Z,66.98
2022-12-19T10:22:38.730Z,66.47
2022-12-19T10:23:38.692Z,68.82
2022-12-19T10:24:38.679Z,65.19
2022-12-19T10:25:38.679Z,66.34
2022-12-19T10:26:38.676Z,66.93
2022-12-19T10:27:38.668Z,64.66
2022-12-19T10:28:39.713Z,64.01
2022-12-19T10:29:38.741Z,66.50
2022-12-19T10:30:38.649Z,65.04
2022-12-19T10:31:38.718Z,66.31
2022-12-19T10:32:38.657Z,67.84
2022-12-19T10:33:38.631Z,66.98
2022-12-19T10:34:40.743Z,66.99
2022-12-19T10:35:38.614Z,65.07
2022-12-19T10:37:12.279Z,64.83
2022-12-19T10:37:45.625Z,67.93
2022-12-19T10:38:40.589Z,67.31
2022-12-19T10:39:38.609Z,67.80
2022-12-19T10:40:38.605Z,67.62
2022-12-19T10:41:44.112Z,67.80
2022-12-19T10:42:38.580Z,65.25
2022-12-19T10:43:43.989Z,66.68
2022-12-19T10:44:39.585Z,67.44
2022-12-19T10:45:38.624Z,66.22
2022-12-19T10:46:38.571Z,66.37
2022-12-19T10:47:38.552Z,66.13
2022-12-19T10:48:38.535Z,66.73
2022-12-19T10:49:38.558Z,67.75
2022-12-19T10:50:38.519Z,68.03
2022-12-19T10:51:38.531Z,65.50
2022-12-19T10:52:38.545Z,65.31
2022-12-19T10:53:38.490Z,66.36
2022-12-19T10:54:38.557Z,67.63
2022-12-19T10:55:38.512Z,68.20
2022-12-19T10:56:38.497Z,66.54
2022-12-19T10:57:38.492Z,67.33
2022-12-19T10:58:38.459Z,66.17
2022-12-19T10:59:38.523Z,67.36
2022-12-19T11:00:38.529Z,65.42
2022-12-19T11:01:38.761Z,65.02
2022-12-19T11:02:38.636Z,64.67
2022-12-19T11:03:38.454Z,63.88
2022-12-19T11:04:38.484Z,62.84
2022-12-19T11:05:38.560Z,66.85
2022-12-19T11:06:38.440Z,68.27
2022-12-19T11:07:38.431Z,68.21
2022-12-19T11:08:38.460Z,66.98
2022-12-19T11:09:38.428Z,65.28
2022-12-19T11:11:39.459Z,67.99
2022-12-19T11:14:32.044Z,68.31
2022-12-19T11:17:09.634Z,65.87
2022-12-19T11:19:50.045Z,66.84
2022-12-19T11:19:51.884Z,67.09
2022-12-19T11:20:27.355Z,66.89
2022-12-19T11:21:18.717Z,66.97
2022-12-19T11:27:03.866Z,67.53
2022-12-19T11:27:45.678Z,67.80
2022-12-19T11:29:15.952Z,68.97
2022-12-19T11:29:25.720Z,67.86
2022-12-19T11:29:40.930Z,67.50
2022-12-19T11:29:46.488Z,68.32
2022-12-19T11:29:54.826Z,67.35
2022-12-19T11:30:06.050Z,67.90
2022-12-19T11:30:38.648Z,68.23
2022-12-19T11:30:39.348Z,65.39
2022-12-19T11:30:43.544Z,66.79
2022-12-19T11:30:43.750Z,67.30
2022-12-19T11:32:42.228Z,67.52
2022-12-19T11:33:38.379Z,68.43
2022-12-19T11:34:38.216Z,68.09
2022-12-19T11:35:38.232Z,68.02
2022-12-19T11:36:38.228Z,68.52
2022-12-19T11:37:38.211Z,66.23
2022-12-19T11:38:38.193Z,66.40
2022-12-19T11:39:38.189Z,65.33
2022-12-19T11:40:43.018Z,66.30
2022-12-19T11:41:39.203Z,65.41
2022-12-19T11:42:38.196Z,67.08
2022-12-19T11:43:46.745Z,67.78
2022-12-19T11:44:39.155Z,68.86
2022-12-19T11:45:38.157Z,67.44
2022-12-19T11:46:38.151Z,67.14
2022-12-19T11:47:38.198Z,65.88
2022-12-19T11:48:38.177Z,67.05
2022-12-19T11:49:38.218Z,69.29
2022-12-19T11:50:38.130Z,67.26
2022-12-19T11:51:38.126Z,67.74
2022-12-19T11:53:03.323Z,66.79
2022-12-19T11:53:39.128Z,65.76
2022-12-19T11:54:38.096Z,66.02
2022-12-19T11:55:38.110Z,67.68
2022-12-19T11:56:38.100Z,66.21
2022-12-19T11:57:38.104Z,64.99
2022-12-19T11:58:38.078Z,66.95
2022-12-19T11:59:38.113Z,65.75
2022-12-19T12:00:38.085Z,68.21
2022-12-19T12:01:38.103Z,68.67
2022-12-19T12:02:38.052Z,68.39
2022-12-19T12:03:38.138Z,68.66
2022-12-19T12:04:38.099Z,68.66
2022-12-19T12:05:38.137Z,68.96
2022-12-19T12:06:39.912Z,65.37
2022-12-19T12:08:45.259Z,65.81
2022-12-19T12:09:41.835Z,65.95
2022-12-19T12:11:58.409Z,64.52
2022-12-19T12:13:29.472Z,66.99
2022-12-19T12:15:08.547Z,67.75
2022-12-19T12:20:33.131Z,68.57
2022-12-19T12:22:42.874Z,70.50
2022-12-19T12:24:42.968Z,65.06
2022-12-19T12:25:25.855Z,67.63
2022-12-19T12:29:14.465Z,64.50
2022-12-19T12:31:01.480Z,68.49
2022-12-19T12:31:07.885Z,69.25
2022-12-19T12:31:07.991Z,66.98
2022-12-19T12:31:08.169Z,66.23
2022-12-19T12:31:12.796Z,68.56
2022-12-19T12:31:15.792Z,66.05
2022-12-19T12:31:30.805Z,68.42
2022-12-19T12:31:39.475Z,67.12
2022-12-19T12:31:39.616Z,65.96
2022-12-19T12:31:41.755Z,64.76
2022-12-19T12:31:46.811Z,65.95
2022-12-19T12:31:47.317Z,66.95
2022-12-19T12:31:48.871Z,67.31
2022-12-19T12:31:53.907Z,69.26
2022-12-19T12:35:46.744Z,68.45
2022-12-19T12:35:47.066Z,69.26
2022-12-19T12:35:54.549Z,65.70
2022-12-19T12:38:19.055Z,69.22
2022-12-19T12:38:39.300Z,66.44
2022-12-19T12:39:37.819Z,66.20
2022-12-19T12:40:37.805Z,66.16
2022-12-19T12:41:37.795Z,67.24
2022-12-19T12:42:37.791Z,66.58
2022-12-19T12:43:37.813Z,66.05
2022-12-19T12:44:44.798Z,65.34
2022-12-19T12:45:37.826Z,65.84
2022-12-19T12:46:37.809Z,65.81
2022-12-19T12:47:37.781Z,66.84
2022-12-19T12:48:37.772Z,65.02
2022-12-19T12:49:37.744Z,66.27
2022-12-19T12:50:37.739Z,65.88
2022-12-19T12:51:37.755Z,66.15
2022-12-19T12:52:37.771Z,65.18
2022-12-19T12:53:37.723Z,67.81
2022-12-19T12:54:37.727Z,67.36
2022-12-19T12:55:37.720Z,65.49
2022-12-19T12:56:37.754Z,65.17
2022-12-19T12:57:37.707Z,66.72
2022-12-19T12:58:37.716Z,66.32